createdAt,value
2019-05-13T00:02:14.816Z,101762.09
2019-05-13T00:04:45.528Z,101762.61
2019-05-13T00:07:16.069Z,101760.02
2019-05-13T00:09:47.177Z,101760.14
2019-05-13T00:12:19.607Z,101758.80
2019-05-13T00:15:11.152Z,101759.17
2019-05-13T00:17:44.333Z,101756.59
2019-05-13T00:20:15.007Z,101762.15
2019-05-13T00:22:45.153Z,101767.94
2019-05-13T00:25:15.350Z,101768.52
2019-05-13T00:27:45.162Z,101778.06
2019-05-13T00:30:14.882Z,101779.30
2019-05-13T00:32:44.871Z,101774.80
2019-05-13T00:35:14.617Z,101777.28
2019-05-13T00:37:44.523Z,101777.84
2019-05-13T00:40:14.712Z,101782.70
2019-05-13T00:42:44.708Z,101788.41
2019-05-13T00:45:14.761Z,101784.39
2019-05-13T00:47:44.326Z,101789.97
2019-05-13T00:50:14.490Z,101788.50
2019-05-13T00:52:45.121Z,101794.45
2019-05-13T00:55:15.102Z,101791.38
2019-05-13T00:57:44.681Z,101797.84
2019-05-13T01:00:14.439Z,101795.20
2019-05-13T01:02:45.801Z,101794.80
2019-05-13T01:05:15.630Z,101798.67
2019-05-13T01:07:45.137Z,101795.21
2019-05-13T01:10:14.846Z,101803.02
2019-05-13T01:12:44.828Z,101801.84
2019-05-13T01:15:15.223Z,101809.53
2019-05-13T01:17:45.934Z,101805.69
2019-05-13T01:20:15.835Z,101809.39
2019-05-13T01:22:45.410Z,101801.06
2019-05-13T01:25:15.026Z,101808.50
2019-05-13T01:27:44.611Z,101810.39
2019-05-13T01:30:14.969Z,101809.16
2019-05-13T01:32:45.059Z,101809.52
2019-05-13T01:35:15.082Z,101815.73
2019-05-13T01:37:46.050Z,101816.76
2019-05-13T01:40:15.880Z,101817.55
2019-05-13T01:42:45.651Z,101816.95
2019-05-13T01:45:15.514Z,101817.91
2019-05-13T01:47:44.959Z,101824.66
2019-05-13T01:50:15.065Z,101826.31
2019-05-13T01:52:44.903Z,101824.82
2019-05-13T01:55:14.972Z,101835.22
2019-05-13T01:57:44.807Z,101838.20
2019-05-13T02:00:15.229Z,101839.52
2019-05-13T02:02:45.097Z,101835.91
2019-05-13T02:05:14.573Z,101834.20
2019-05-13T02:07:57.057Z,101843.30
2019-05-13T02:10:17.167Z,101838.98
2019-05-13T02:12:47.167Z,101837.44
2019-05-13T02:15:17.026Z,101837.91
2019-05-13T02:17:46.738Z,101843.91
2019-05-13T02:20:16.253Z,101850.87
2019-05-13T02:22:45.702Z,101852.50
2019-05-13T02:25:15.164Z,101849.77
2019-05-13T02:27:44.920Z,101859.58
2019-05-13T02:30:16.129Z,101856.11
2019-05-13T02:32:45.594Z,101865.28
2019-05-13T02:35:15.056Z,101862.32
2019-05-13T02:37:44.513Z,101861.75
2019-05-13T02:40:14.325Z,101861.64
2019-05-13T02:42:44.018Z,101876.38
2019-05-13T02:45:33.510Z,101870.45
2019-05-13T02:48:03.572Z,101873.01
2019-05-13T02:50:34.067Z,101869.12
2019-05-13T02:53:03.618Z,101867.40
2019-05-13T02:55:33.236Z,101871.87
2019-05-13T02:58:03.488Z,101868.88
2019-05-13T03:00:33.227Z,101870.00
2019-05-13T03:03:03.412Z,101878.67
2019-05-13T03:05:32.998Z,101872.06
2019-05-13T03:08:03.532Z,101865.92
2019-05-13T03:10:34.595Z,101872.06
2019-05-13T03:13:04.316Z,101874.72
2019-05-13T03:15:35.518Z,101874.74
2019-05-13T03:18:07.200Z,101874.81
2019-05-13T03:20:36.676Z,101878.81
2019-05-13T03:23:06.134Z,101879.79
2019-05-13T03:25:35.865Z,101883.32
2019-05-13T03:28:05.323Z,101883.66
2019-05-13T03:30:35.788Z,101884.53
2019-05-13T03:33:10.688Z,101885.92
2019-05-13T03:35:37.453Z,101889.03
2019-05-13T03:38:12.478Z,101885.96
2019-05-13T03:40:42.494Z,101890.36
2019-05-13T03:43:12.792Z,101889.86
2019-05-13T03:45:43.536Z,101897.25
2019-05-13T03:48:13.322Z,101890.59
2019-05-13T03:50:43.522Z,101899.42
2019-05-13T03:53:13.308Z,101898.95
2019-05-13T03:55:43.599Z,101910.74
2019-05-13T03:58:13.482Z,101908.73
2019-05-13T04:00:44.034Z,101915.94
2019-05-13T04:03:13.969Z,101922.06
2019-05-13T04:05:43.980Z,101920.01
2019-05-13T04:08:13.802Z,101917.27
2019-05-13T04:10:43.336Z,101925.00
2019-05-13T04:13:13.120Z,101922.20
2019-05-13T04:15:42.956Z,101927.41
2019-05-13T04:18:12.942Z,101927.80
2019-05-13T04:20:42.639Z,101929.47
2019-05-13T04:23:12.974Z,101928.61
2019-05-13T04:25:44.692Z,101928.73
2019-05-13T04:28:13.982Z,101927.53
2019-05-13T04:30:43.793Z,101935.00
2019-05-13T04:33:14.107Z,101940.99
2019-05-13T04:35:43.746Z,101940.59
2019-05-13T04:38:13.430Z,101943.00
2019-05-13T04:40:43.236Z,101940.14
2019-05-13T04:43:13.585Z,101945.04
2019-05-13T04:45:43.291Z,101943.64
2019-05-13T04:48:13.079Z,101952.17
2019-05-13T04:50:43.245Z,101950.14
2019-05-13T04:53:13.668Z,101945.27
2019-05-13T04:55:43.895Z,101950.62
2019-05-13T04:58:13.374Z,101954.48
2019-05-13T05:00:49.694Z,101953.70
2019-05-13T05:03:41.229Z,101953.20
2019-05-13T05:06:32.867Z,101956.59
2019-05-13T05:09:12.665Z,101957.78
2019-05-13T05:12:19.070Z,101963.41
2019-05-13T05:15:12.127Z,101967.12
2019-05-13T05:17:56.736Z,101961.11
2019-05-13T05:20:38.323Z,101959.46
2019-05-13T05:23:16.681Z,101958.14
2019-05-13T05:26:14.850Z,101953.27
2019-05-13T05:28:55.132Z,101958.81
2019-05-13T05:31:33.728Z,101955.47
2019-05-13T05:34:11.421Z,101961.75
2019-05-13T05:36:56.864Z,101963.85
2019-05-13T05:39:27.680Z,101958.72
2019-05-13T05:41:59.077Z,101960.28
2019-05-13T05:44:32.469Z,101953.56
2019-05-13T05:47:03.036Z,101947.28
2019-05-13T05:49:32.744Z,101951.13
2019-05-13T05:52:06.882Z,101951.13
2019-05-13T05:54:38.287Z,101944.19
2019-05-13T05:57:09.036Z,101947.45
2019-05-13T05:59:38.964Z,101951.50
2019-05-13T06:02:08.742Z,101946.78
2019-05-13T06:04:38.376Z,101944.52
2019-05-13T06:07:07.894Z,101937.74
2019-05-13T06:09:37.340Z,101939.41
2019-05-13T06:12:07.233Z,101943.45
2019-05-13T06:14:36.752Z,101944.59
2019-05-13T06:17:06.266Z,101939.10
2019-05-13T06:19:35.736Z,101947.84
2019-05-13T06:22:05.554Z,101951.93
2019-05-13T06:24:35.008Z,101945.58
2019-05-13T06:27:04.593Z,101948.23
2019-05-13T06:29:34.700Z,101950.71
2019-05-13T06:32:18.250Z,101950.58
2019-05-13T06:34:35.376Z,101952.53
2019-05-13T06:37:05.261Z,101955.02
2019-05-13T06:39:35.080Z,101946.37
2019-05-13T06:42:04.537Z,101948.39
2019-05-13T06:44:33.983Z,101962.87
2019-05-13T06:47:03.520Z,101966.01
2019-05-13T06:49:32.993Z,101959.70
2019-05-13T06:52:02.451Z,101968.41
2019-05-13T06:54:32.881Z,101963.52
2019-05-13T06:57:05.493Z,101968.91
2019-05-13T06:59:34.424Z,101968.52
2019-05-13T07:02:04.039Z,101971.19
2019-05-13T07:04:33.519Z,101968.33
2019-05-13T07:07:12.275Z,101967.67
2019-05-13T07:09:34.221Z,101970.30
2019-05-13T07:12:03.788Z,101960.36
2019-05-13T07:14:33.575Z,101962.10
2019-05-13T07:17:03.029Z,101969.77
2019-05-13T07:19:32.718Z,101964.89
2019-05-13T07:22:03.068Z,101963.31
2019-05-13T07:24:32.991Z,101963.00
2019-05-13T07:27:02.506Z,101969.70
2019-05-13T07:29:32.728Z,101956.44
2019-05-13T07:32:02.436Z,101965.30
2019-05-13T07:34:33.667Z,101955.80
2019-05-13T07:37:03.086Z,101961.67
2019-05-13T07:39:33.142Z,101964.02
2019-05-13T07:42:05.876Z,101956.19
2019-05-13T07:44:34.427Z,101954.48
2019-05-13T07:47:03.979Z,101954.19
2019-05-13T07:49:33.589Z,101950.05
2019-05-13T07:52:03.041Z,101951.56
2019-05-13T07:54:33.321Z,101950.66
2019-05-13T07:57:02.887Z,101951.26
2019-05-13T07:59:32.347Z,101944.53
2019-05-13T08:02:02.591Z,101943.66
2019-05-13T08:04:33.500Z,101945.80
2019-05-13T08:07:03.304Z,101949.90
2019-05-13T08:09:32.808Z,101940.75
2019-05-13T08:12:09.894Z,101937.37
2019-05-13T08:14:34.121Z,101954.16
2019-05-13T08:17:03.588Z,101945.39
2019-05-13T08:19:33.061Z,101943.98
2019-05-13T08:22:02.716Z,101939.33
2019-05-13T08:24:32.383Z,101944.28
2019-05-13T08:27:02.443Z,101939.16
2019-05-13T08:29:33.038Z,101944.39
2019-05-13T08:32:03.226Z,101946.88
2019-05-13T08:34:33.205Z,101945.05
2019-05-13T08:37:03.379Z,101946.74
2019-05-13T08:39:38.104Z,101944.66
2019-05-13T08:42:15.157Z,101940.66
2019-05-13T08:44:35.821Z,101938.42
2019-05-13T08:47:05.281Z,101943.82
2019-05-13T08:49:34.817Z,101938.00
2019-05-13T08:52:04.346Z,101946.48
2019-05-13T08:54:34.406Z,101942.83
2019-05-13T08:57:03.946Z,101940.08
2019-05-13T08:59:33.729Z,101945.43
2019-05-13T09:02:03.612Z,101947.70
2019-05-13T09:04:33.141Z,101945.87
2019-05-13T09:07:03.496Z,101937.84
2019-05-13T09:09:32.935Z,101937.63
2019-05-13T09:12:02.872Z,101935.97
2019-05-13T09:14:32.752Z,101930.09
2019-05-13T09:17:02.475Z,101928.58
2019-05-13T09:19:32.541Z,101945.80
2019-05-13T09:22:03.359Z,101931.79
2019-05-13T09:24:37.515Z,101926.06
2019-05-13T09:27:04.288Z,101932.22
2019-05-13T09:29:33.742Z,101937.78
2019-05-13T09:32:04.072Z,101940.84
2019-05-13T09:34:33.951Z,101939.54
2019-05-13T09:37:03.583Z,101924.96
2019-05-13T09:39:33.039Z,101918.34
2019-05-13T09:42:03.232Z,101921.22
2019-05-13T09:44:33.215Z,101918.18
2019-05-13T09:47:03.062Z,101923.12
2019-05-13T09:49:33.223Z,101931.99
2019-05-13T09:52:02.778Z,101931.95
2019-05-13T09:54:33.152Z,101933.73
2019-05-13T09:57:03.133Z,101928.08
2019-05-13T09:59:32.577Z,101918.31
2019-05-13T10:02:03.345Z,101912.95
2019-05-13T10:04:33.131Z,101913.91
2019-05-13T10:07:02.827Z,101913.22
2019-05-13T10:09:33.029Z,101917.64
2019-05-13T10:12:03.501Z,101914.78
2019-05-13T10:14:33.384Z,101916.32
2019-05-13T10:17:06.161Z,101902.78
2019-05-13T10:19:34.515Z,101900.94
2019-05-13T10:22:04.125Z,101900.38
2019-05-13T10:24:33.740Z,101902.58
2019-05-13T10:27:03.405Z,101904.92
2019-05-13T10:29:33.022Z,101905.39
2019-05-13T10:32:03.706Z,101893.81
2019-05-13T10:34:33.851Z,101882.59
2019-05-13T10:37:03.371Z,101891.70
2019-05-13T10:39:34.051Z,101886.05
2019-05-13T10:42:03.996Z,101882.58
2019-05-13T10:44:33.873Z,101885.17
2019-05-13T10:47:03.332Z,101889.76
2019-05-13T10:52:04.028Z,101901.14
2019-05-13T10:54:33.502Z,101904.16
2019-05-13T10:57:03.957Z,101916.09
2019-05-13T10:59:33.731Z,101899.27
2019-05-13T11:02:03.186Z,101911.41
2019-05-13T11:04:32.970Z,101915.49
2019-05-13T11:07:03.229Z,101902.72
2019-05-13T11:09:32.954Z,101900.09
2019-05-13T11:12:03.595Z,101891.80
2019-05-13T11:14:33.069Z,101881.22
2019-05-13T11:17:02.519Z,101880.84
2019-05-13T11:19:36.142Z,101888.17
2019-05-13T11:22:03.448Z,101881.83
2019-05-13T11:24:32.978Z,101874.86
2019-05-13T11:27:02.981Z,101875.96
2019-05-13T11:29:32.777Z,101875.15
2019-05-13T11:32:02.953Z,101882.14
2019-05-13T11:34:33.111Z,101880.16
2019-05-13T11:37:03.565Z,101884.34
2019-05-13T11:39:33.438Z,101889.40
2019-05-13T11:42:03.001Z,101886.53
2019-05-13T11:44:32.705Z,101882.44
2019-05-13T11:47:02.845Z,101873.19
2019-05-13T11:49:32.711Z,101871.23
2019-05-13T11:52:02.834Z,101866.48
2019-05-13T11:54:32.711Z,101877.26
2019-05-13T11:57:06.222Z,101873.69
2019-05-13T11:59:33.314Z,101852.91
2019-05-13T12:02:04.574Z,101844.39
2019-05-13T12:04:34.896Z,101838.78
2019-05-13T12:07:04.646Z,101835.30
2019-05-13T12:09:34.105Z,101837.83
2019-05-13T12:12:03.727Z,101833.66
2019-05-13T12:14:44.336Z,101836.86
2019-05-13T12:17:04.358Z,101849.42
2019-05-13T12:19:33.850Z,101840.53
2019-05-13T12:22:03.393Z,101842.45
2019-05-13T12:24:32.994Z,101839.77
2019-05-13T12:27:03.775Z,101839.29
2019-05-13T12:29:33.623Z,101849.14
2019-05-13T12:32:03.470Z,101841.29
2019-05-13T12:34:40.518Z,101838.55
2019-05-13T12:37:04.618Z,101835.75
2019-05-13T12:39:34.609Z,101823.91
2019-05-13T12:42:04.062Z,101829.30
2019-05-13T12:44:33.906Z,101833.73
2019-05-13T12:47:03.597Z,101828.30
2019-05-13T12:49:36.469Z,101815.51
2019-05-13T12:52:04.845Z,101806.25
2019-05-13T12:54:34.821Z,101797.73
2019-05-13T12:57:11.235Z,101797.73
2019-05-13T12:59:35.532Z,101801.52
2019-05-13T13:02:05.007Z,101811.07
2019-05-13T13:04:34.529Z,101812.98
2019-05-13T13:07:04.060Z,101811.79
2019-05-13T13:09:33.879Z,101824.78
2019-05-13T13:12:04.023Z,101813.86
2019-05-13T13:14:38.511Z,101815.12
2019-05-13T13:17:05.115Z,101819.05
2019-05-13T13:19:34.844Z,101826.09
2019-05-13T13:22:07.856Z,101818.50
2019-05-13T13:24:35.618Z,101804.20
2019-05-13T13:27:14.536Z,101804.19
2019-05-13T13:29:36.678Z,101793.09
2019-05-13T13:32:06.131Z,101790.53
2019-05-13T13:34:35.617Z,101800.41
2019-05-13T13:37:05.475Z,101794.02
2019-05-13T13:39:35.253Z,101795.25
2019-05-13T13:42:05.843Z,101803.91
2019-05-13T13:44:35.459Z,101807.46
2019-05-13T13:47:04.923Z,101804.25
2019-05-13T13:49:35.294Z,101797.66
2019-05-13T13:52:05.239Z,101795.20
2019-05-13T13:54:34.951Z,101796.37
2019-05-13T13:57:04.444Z,101799.70
2019-05-13T13:59:35.956Z,101802.31
2019-05-13T14:02:05.778Z,101797.45
2019-05-13T14:04:35.356Z,101798.89
2019-05-13T14:07:02.559Z,101897.05
2019-05-13T14:09:36.026Z,101796.27
2019-05-13T14:12:05.494Z,101800.25
2019-05-13T14:14:34.951Z,101796.54
2019-05-13T14:17:04.416Z,101786.52
2019-05-13T14:19:33.869Z,101779.58
2019-05-13T14:22:03.615Z,101792.91
2019-05-13T14:24:33.263Z,101783.16
2019-05-13T14:27:03.204Z,101783.69
2019-05-13T14:29:40.520Z,101781.88
2019-05-13T14:32:04.007Z,101777.30
2019-05-13T14:34:33.536Z,101774.96
2019-05-13T14:37:03.065Z,101771.80
2019-05-13T14:39:35.677Z,101770.94
2019-05-13T14:42:03.689Z,101764.39
2019-05-13T14:44:33.180Z,101771.01
2019-05-13T14:47:02.667Z,101763.84
2019-05-13T14:49:32.115Z,101753.40
2019-05-13T14:52:01.582Z,101747.41
2019-05-13T14:54:31.470Z,101749.31
2019-05-13T14:57:02.408Z,101752.98
2019-05-13T14:59:32.046Z,101755.93
2019-05-13T15:02:01.557Z,101746.28
2019-05-13T15:04:32.497Z,101743.92
2019-05-13T15:07:02.607Z,101744.67
2019-05-13T15:09:32.344Z,101745.53
2019-05-13T15:12:02.488Z,101745.41
2019-05-13T15:14:32.251Z,101742.56
2019-05-13T15:17:06.319Z,101743.55
2019-05-13T15:19:33.111Z,101740.95
2019-05-13T15:22:02.909Z,101745.64
2019-05-13T15:24:32.660Z,101735.08
2019-05-13T15:27:02.372Z,101741.75
2019-05-13T15:29:31.874Z,101744.98
2019-05-13T15:32:02.128Z,101744.50
2019-05-13T15:34:32.132Z,101738.77
2019-05-13T15:37:02.297Z,101726.03
2019-05-13T15:39:31.775Z,101720.90
2019-05-13T15:42:02.014Z,101725.58
2019-05-13T15:44:32.622Z,101725.16
2019-05-13T15:47:18.161Z,101723.58
2019-05-13T15:49:33.655Z,101724.20
2019-05-13T15:52:03.140Z,101719.92
2019-05-13T15:54:32.894Z,101722.27
2019-05-13T15:57:02.615Z,101722.19
2019-05-13T15:59:32.315Z,101718.24
2019-05-13T16:02:02.431Z,101714.84
2019-05-13T16:04:32.213Z,101714.70
2019-05-13T16:07:01.888Z,101716.95
2019-05-13T16:09:31.608Z,101710.98
2019-05-13T16:12:01.690Z,101714.84
2019-05-13T16:14:31.745Z,101717.58
2019-05-13T16:17:01.353Z,101716.72
2019-05-13T16:19:32.658Z,101710.35
2019-05-13T16:22:02.152Z,101715.81
2019-05-13T16:24:32.282Z,101712.08
2019-05-13T16:27:02.754Z,101722.08
2019-05-13T16:29:32.287Z,101714.42
2019-05-13T16:32:01.826Z,101709.67
2019-05-13T16:34:31.943Z,101714.84
2019-05-13T16:37:02.107Z,101710.53
2019-05-13T16:39:32.221Z,101712.77
2019-05-13T16:42:01.766Z,101709.22
2019-05-13T16:44:32.005Z,101706.61
2019-05-13T16:47:02.090Z,101714.97
2019-05-13T16:49:32.012Z,101709.22
2019-05-13T16:52:02.537Z,101707.34
2019-05-13T16:54:33.069Z,101711.31
2019-05-13T16:57:02.791Z,101708.73
2019-05-13T16:59:32.237Z,101709.89
2019-05-13T17:02:02.038Z,101710.69
2019-05-13T17:04:32.290Z,101713.70
2019-05-13T17:07:01.883Z,101711.71
2019-05-13T17:09:32.401Z,101709.25
2019-05-13T17:12:01.978Z,101718.16
2019-05-13T17:14:32.286Z,101702.45
2019-05-13T17:17:02.212Z,101708.70
2019-05-13T17:19:32.003Z,101709.13
2019-05-13T17:22:02.486Z,101715.22
2019-05-13T17:24:32.371Z,101714.80
2019-05-13T17:27:02.724Z,101712.44
2019-05-13T17:29:32.542Z,101708.55
2019-05-13T17:32:02.573Z,101714.59
2019-05-13T17:34:32.178Z,101718.89
2019-05-13T17:37:02.751Z,101718.09
2019-05-13T17:39:32.411Z,101712.44
2019-05-13T17:42:02.197Z,101719.62
2019-05-13T17:44:32.068Z,101717.69
2019-05-13T17:47:02.143Z,101717.69
2019-05-13T17:49:32.026Z,101729.80
2019-05-13T17:52:02.510Z,101718.63
2019-05-13T17:54:32.292Z,101721.70
2019-05-13T17:57:02.174Z,101725.77
2019-05-13T17:59:31.853Z,101722.09
2019-05-13T18:02:02.662Z,101714.53
2019-05-13T18:04:32.327Z,101726.33
2019-05-13T18:07:01.940Z,101726.33
2019-05-13T18:09:32.039Z,101727.92
2019-05-13T18:12:02.397Z,101727.28
2019-05-13T18:14:32.174Z,101727.28
2019-05-13T18:17:02.359Z,101733.52
2019-05-13T18:19:31.982Z,101734.06
2019-05-13T18:22:02.172Z,101732.75
2019-05-13T18:24:32.289Z,101738.94
2019-05-13T18:27:02.105Z,101743.09
2019-05-13T18:29:31.940Z,101747.95
2019-05-13T18:32:01.990Z,101744.84
2019-05-13T18:34:32.295Z,101745.07
2019-05-13T18:37:02.675Z,101746.30
2019-05-13T18:39:32.434Z,101741.36
2019-05-13T18:42:01.839Z,101742.06
2019-05-13T18:44:31.765Z,101742.62
2019-05-13T18:47:01.719Z,101739.43
2019-05-13T18:49:31.793Z,101741.97
2019-05-13T18:52:01.428Z,101746.48
2019-05-13T18:54:31.638Z,101738.74
2019-05-13T18:57:01.773Z,101746.28
2019-05-13T18:59:32.172Z,101739.76
2019-05-13T19:02:01.846Z,101745.47
2019-05-13T19:04:31.522Z,101746.70
2019-05-13T19:07:02.333Z,101747.38
2019-05-13T19:09:32.031Z,101751.68
2019-05-13T19:12:01.671Z,101751.32
2019-05-13T19:14:31.917Z,101750.50
2019-05-13T19:17:01.851Z,101749.89
2019-05-13T19:19:31.790Z,101754.85
2019-05-13T19:22:02.305Z,101752.09
2019-05-13T19:24:31.832Z,101753.82
2019-05-13T19:27:01.891Z,101763.30
2019-05-13T19:29:32.001Z,101752.77
2019-05-13T19:32:01.901Z,101757.95
2019-05-13T19:34:32.274Z,101760.41
2019-05-13T19:37:02.598Z,101758.30
2019-05-13T19:39:32.054Z,101758.69
2019-05-13T19:42:01.508Z,101759.49
2019-05-13T19:44:31.575Z,101755.09
2019-05-13T19:47:01.977Z,101756.25
2019-05-13T19:49:36.128Z,101757.91
2019-05-13T19:52:02.790Z,101750.34
2019-05-13T19:54:32.652Z,101759.82
2019-05-13T19:57:02.115Z,101753.52
2019-05-13T19:59:32.207Z,101748.15
2019-05-13T20:02:01.929Z,101748.47
2019-05-13T20:04:31.499Z,101748.17
2019-05-13T20:07:01.145Z,101743.52
2019-05-13T20:09:32.193Z,101746.22
2019-05-13T20:12:02.190Z,101746.30
2019-05-13T20:14:31.643Z,101741.20
2019-05-13T20:17:01.626Z,101746.48
2019-05-13T20:19:46.028Z,101741.23
2019-05-13T20:22:02.549Z,101738.55
2019-05-13T20:24:32.196Z,101744.23
2019-05-13T20:27:02.103Z,101732.42
2019-05-13T20:29:31.539Z,101734.77
2019-05-13T20:32:01.470Z,101732.75
2019-05-13T20:34:31.768Z,101730.88
2019-05-13T20:37:02.076Z,101729.63
2019-05-13T20:39:32.205Z,101734.31
2019-05-13T20:42:01.883Z,101732.20
2019-05-13T20:44:31.604Z,101727.92
2019-05-13T20:47:01.742Z,101733.38
2019-05-13T20:49:31.469Z,101736.23
2019-05-13T20:52:00.976Z,101737.24
2019-05-13T20:54:31.438Z,101734.84
2019-05-13T20:57:01.958Z,101740.00
2019-05-13T20:59:32.342Z,101747.18
2019-05-13T21:02:02.455Z,101743.33
2019-05-13T21:04:32.502Z,101738.05
2019-05-13T21:07:02.310Z,101748.64
2019-05-13T21:09:31.820Z,101747.30
2019-05-13T21:12:01.917Z,101749.02
2019-05-13T21:14:32.099Z,101753.16
2019-05-13T21:17:02.226Z,101761.94
2019-05-13T21:19:39.308Z,101767.03
2019-05-13T21:22:03.285Z,101765.51
2019-05-13T21:24:32.720Z,101766.59
2019-05-13T21:27:02.274Z,101765.10
2019-05-13T21:29:32.430Z,101758.25
2019-05-13T21:32:02.082Z,101750.62
2019-05-13T21:34:31.745Z,101754.39
2019-05-13T21:37:02.389Z,101752.23
2019-05-13T21:39:32.206Z,101748.90
2019-05-13T21:42:02.472Z,101743.39
2019-05-13T21:44:32.690Z,101736.11
2019-05-13T21:47:02.378Z,101733.66
2019-05-13T21:49:32.204Z,101735.01
2019-05-13T21:52:01.657Z,101734.08
2019-05-13T21:54:33.562Z,101734.47
2019-05-13T21:57:02.620Z,101733.77
2019-05-13T21:59:32.206Z,101734.89
2019-05-13T22:02:02.292Z,101736.51
2019-05-13T22:04:31.747Z,101729.82
2019-05-13T22:07:01.711Z,101725.13
2019-05-13T22:09:32.014Z,101734.11
2019-05-13T22:12:02.103Z,101727.75
2019-05-13T22:14:32.136Z,101728.23
2019-05-13T22:17:01.896Z,101726.95
2019-05-13T22:19:31.721Z,101726.45
2019-05-13T22:22:02.242Z,101722.18
2019-05-13T22:24:32.010Z,101721.61
2019-05-13T22:27:02.058Z,101720.95
2019-05-13T22:29:32.128Z,101725.44
2019-05-13T22:32:02.324Z,101728.04
2019-05-13T22:34:32.095Z,101723.09
2019-05-13T22:37:02.423Z,101720.52
2019-05-13T22:39:34.634Z,101722.58
2019-05-13T22:42:03.270Z,101726.47
2019-05-13T22:44:32.948Z,101726.02
2019-05-13T22:47:02.706Z,101729.80
2019-05-13T22:49:32.111Z,101732.51
2019-05-13T22:52:01.557Z,101727.09
2019-05-13T22:57:01.243Z,101718.97
2019-05-13T22:59:32.218Z,101721.87
2019-05-13T23:02:01.893Z,101728.22
2019-05-13T23:04:31.599Z,101722.59
2019-05-13T23:07:01.438Z,101721.80
2019-05-13T23:09:32.599Z,101721.95
2019-05-13T23:12:02.435Z,101720.28
2019-05-13T23:14:31.886Z,101725.01
2019-05-13T23:17:02.336Z,101722.94
2019-05-13T23:19:32.403Z,101719.03
2019-05-13T23:22:02.013Z,101723.02
2019-05-13T23:24:31.473Z,101725.91
2019-05-13T23:27:02.111Z,101727.13
2019-05-13T23:29:32.040Z,101728.76
2019-05-13T23:32:01.902Z,101728.61
2019-05-13T23:34:31.971Z,101724.10
2019-05-13T23:37:01.524Z,101723.83
2019-05-13T23:39:32.123Z,101723.20
2019-05-13T23:42:02.070Z,101706.99
2019-05-13T23:44:32.252Z,101704.67
2019-05-13T23:47:01.800Z,101704.16
2019-05-13T23:49:31.778Z,101699.21
2019-05-13T23:52:02.505Z,101698.27
2019-05-13T23:54:32.354Z,101694.80
2019-05-13T23:57:01.789Z,101694.01
2019-05-13T23:59:31.351Z,101692.83
